﻿<?xml version="1.0" encoding="utf-8"?><gpx creator="Garmin Desktop App" version="1.1" xsi:schemaLocation="http://www.topografix.com/GPX/1/1 http://www.topografix.com/GPX/1/1/gpx.xsd http://www.garmin.com/xmlschemas/WaypointExtension/v1 http://www8.garmin.com/xmlschemas/WaypointExtensionv1.xsd http://www.garmin.com/xmlschemas/TrackPointExtension/v1 http://www.garmin.com/xmlschemas/TrackPointExtensionv1.xsd http://www.garmin.com/xmlschemas/GpxExtensions/v3 http://www8.garmin.com/xmlschemas/GpxExtensionsv3.xsd http://www.garmin.com/xmlschemas/ActivityExtension/v1 http://www8.garmin.com/xmlschemas/ActivityExtensionv1.xsd http://www.garmin.com/xmlschemas/AdventuresExtensions/v1 http://www8.garmin.com/xmlschemas/AdventuresExtensionv1.xsd http://www.garmin.com/xmlschemas/PressureExtension/v1 http://www.garmin.com/xmlschemas/PressureExtensionv1.xsd http://www.garmin.com/xmlschemas/TripExtensions/v1 http://www.garmin.com/xmlschemas/TripExtensionsv1.xsd http://www.garmin.com/xmlschemas/TripMetaDataExtensions/v1 http://www.garmin.com/xmlschemas/TripMetaDataExtensionsv1.xsd http://www.garmin.com/xmlschemas/ViaPointTransportationModeExtensions/v1 http://www.garmin.com/xmlschemas/ViaPointTransportationModeExtensionsv1.xsd http://www.garmin.com/xmlschemas/CreationTimeExtension/v1 http://www.garmin.com/xmlschemas/CreationTimeExtensionsv1.xsd http://www.garmin.com/xmlschemas/AccelerationExtension/v1 http://www.garmin.com/xmlschemas/AccelerationExtensionv1.xsd http://www.garmin.com/xmlschemas/PowerExtension/v1 http://www.garmin.com/xmlschemas/PowerExtensionv1.xsd http://www.garmin.com/xmlschemas/VideoExtension/v1 http://www.garmin.com/xmlschemas/VideoExtensionv1.xsd" xmlns="http://www.topografix.com/GPX/1/1" xmlns:xsi="http://www.w3.org/2001/XMLSchema-instance" xmlns:wptx1="http://www.garmin.com/xmlschemas/WaypointExtension/v1" xmlns:gpxtrx="http://www.garmin.com/xmlschemas/GpxExtensions/v3" xmlns:gpxtpx="http://www.garmin.com/xmlschemas/TrackPointExtension/v1" xmlns:gpxx="http://www.garmin.com/xmlschemas/GpxExtensions/v3" xmlns:trp="http://www.garmin.com/xmlschemas/TripExtensions/v1" xmlns:adv="http://www.garmin.com/xmlschemas/AdventuresExtensions/v1" xmlns:prs="http://www.garmin.com/xmlschemas/PressureExtension/v1" xmlns:tmd="http://www.garmin.com/xmlschemas/TripMetaDataExtensions/v1" xmlns:vptm="http://www.garmin.com/xmlschemas/ViaPointTransportationModeExtensions/v1" xmlns:ctx="http://www.garmin.com/xmlschemas/CreationTimeExtension/v1" xmlns:gpxacc="http://www.garmin.com/xmlschemas/AccelerationExtension/v1" xmlns:gpxpx="http://www.garmin.com/xmlschemas/PowerExtension/v1" xmlns:vidx1="http://www.garmin.com/xmlschemas/VideoExtension/v1">

  <metadata>
    <link href="http://www.garmin.com">
      <text>Garmin International</text>
    </link>
    <time>2026-04-20T11:13:17Z</time>
    <bounds maxlat="51.257522804662585" maxlon="5.847870614379644" minlat="51.243339451029897" minlon="5.818622885271907" />
  </metadata>

  <trk>
    <name>20260419 Leveroy</name>
    <extensions>
      <gpxx:TrackExtension>
        <gpxx:DisplayColor>Cyan</gpxx:DisplayColor>
      </gpxx:TrackExtension>
    </extensions>
    <trkseg>
      <trkpt lat="51.247684378176928" lon="5.840588333085179">
        <ele>31.77</ele>
        <time>2026-04-19T07:00:58Z</time>
      </trkpt>
      <trkpt lat="51.247798874974251" lon="5.841230554506183">
        <ele>32.509999999999998</ele>
        <time>2026-04-19T07:01:45Z</time>
      </trkpt>
      <trkpt lat="51.24783986248076" lon="5.841403473168612">
        <ele>32.439999999999998</ele>
        <time>2026-04-19T07:01:55Z</time>
      </trkpt>
      <trkpt lat="51.247935751453042" lon="5.841440018266439">
        <ele>32.590000000000003</ele>
        <time>2026-04-19T07:03:18Z</time>
      </trkpt>
      <trkpt lat="51.248076735064387" lon="5.841388134285808">
        <ele>32.829999999999998</ele>
        <time>2026-04-19T07:03:30Z</time>
      </trkpt>
      <trkpt lat="51.248382087796926" lon="5.841419566422701">
        <ele>32.719999999999999</ele>
        <time>2026-04-19T07:03:56Z</time>
      </trkpt>
      <trkpt lat="51.248504966497421" lon="5.841499110683799">
        <ele>32.5</ele>
        <time>2026-04-19T07:04:10Z</time>
      </trkpt>
      <trkpt lat="51.248565400019288" lon="5.842164549976587">
        <ele>32.740000000000002</ele>
        <time>2026-04-19T07:04:34Z</time>
      </trkpt>
      <trkpt lat="51.248662378638983" lon="5.842261528596282">
        <ele>32.659999999999997</ele>
        <time>2026-04-19T07:04:50Z</time>
      </trkpt>
      <trkpt lat="51.248807888478041" lon="5.842543663457036">
        <ele>32.619999999999997</ele>
        <time>2026-04-19T07:05:05Z</time>
      </trkpt>
      <trkpt lat="51.249184990301728" lon="5.842238226905465">
        <ele>32.270000000000003</ele>
        <time>2026-04-19T07:05:36Z</time>
      </trkpt>
      <trkpt lat="51.249315580353141" lon="5.842129345983267">
        <ele>32.229999999999997</ele>
        <time>2026-04-19T07:05:47Z</time>
      </trkpt>
      <trkpt lat="51.249431418254972" lon="5.842019123956561">
        <ele>32.079999999999998</ele>
        <time>2026-04-19T07:06:01Z</time>
      </trkpt>
      <trkpt lat="51.249676672741771" lon="5.841820808127523">
        <ele>31.510000000000002</ele>
        <time>2026-04-19T07:06:27Z</time>
      </trkpt>
      <trkpt lat="51.249754875898361" lon="5.841754674911499">
        <ele>31.489999999999998</ele>
        <time>2026-04-19T07:06:30Z</time>
      </trkpt>
      <trkpt lat="51.250016475096345" lon="5.842571742832661">
        <ele>31.359999999999999</ele>
        <time>2026-04-19T07:07:02Z</time>
      </trkpt>
      <trkpt lat="51.250111442059278" lon="5.842880867421627">
        <ele>31.359999999999999</ele>
        <time>2026-04-19T07:07:18Z</time>
      </trkpt>
      <trkpt lat="51.250189142301679" lon="5.843151099979878">
        <ele>31.25</ele>
        <time>2026-04-19T07:07:34Z</time>
      </trkpt>
      <trkpt lat="51.25033188611269" lon="5.843627778813243">
        <ele>31.129999999999999</ele>
        <time>2026-04-19T07:07:53Z</time>
      </trkpt>
      <trkpt lat="51.250504301860929" lon="5.843764487653971">
        <ele>31.86328125</ele>
      </trkpt>
      <trkpt lat="51.250569010153413" lon="5.843667509034276">
        <ele>31.140000000000001</ele>
        <time>2026-04-19T07:08:10Z</time>
      </trkpt>
      <trkpt lat="51.250838488340378" lon="5.843879068270326">
        <ele>31.370000000000001</ele>
        <time>2026-04-19T07:08:29Z</time>
      </trkpt>
      <trkpt lat="51.251115845516324" lon="5.843846965581179">
        <ele>31.32</ele>
        <time>2026-04-19T07:09:04Z</time>
      </trkpt>
      <trkpt lat="51.251304689794779" lon="5.843789214268327">
        <ele>31.190000000000001</ele>
        <time>2026-04-19T07:09:18Z</time>
      </trkpt>
      <trkpt lat="51.251376774162054" lon="5.843841349706054">
        <ele>31.18</ele>
        <time>2026-04-19T07:09:24Z</time>
      </trkpt>
      <trkpt lat="51.251258170232177" lon="5.844049388542771">
        <ele>31.079999999999998</ele>
        <time>2026-04-19T07:09:37Z</time>
      </trkpt>
      <trkpt lat="51.251093717291951" lon="5.844305036589503">
        <ele>30.850000000000001</ele>
        <time>2026-04-19T07:09:52Z</time>
      </trkpt>
      <trkpt lat="51.251034457236528" lon="5.84441970102489">
        <ele>30.800000000000001</ele>
        <time>2026-04-19T07:09:58Z</time>
      </trkpt>
      <trkpt lat="51.250950889661908" lon="5.844547525048256">
        <ele>30.699999999999999</ele>
        <time>2026-04-19T07:10:08Z</time>
      </trkpt>
      <trkpt lat="51.250808062031865" lon="5.844714995473623">
        <ele>30.559999999999999</ele>
        <time>2026-04-19T07:10:22Z</time>
      </trkpt>
      <trkpt lat="51.25071108341217" lon="5.844807531684637">
        <ele>30.539999999999999</ele>
        <time>2026-04-19T07:10:29Z</time>
      </trkpt>
      <trkpt lat="51.250791884958744" lon="5.844988245517016">
        <ele>30.489999999999998</ele>
        <time>2026-04-19T07:10:35Z</time>
      </trkpt>
      <trkpt lat="51.250909650698304" lon="5.845215981826186">
        <ele>30.48</ele>
        <time>2026-04-19T07:10:50Z</time>
      </trkpt>
      <trkpt lat="51.251119868829846" lon="5.845599453896284">
        <ele>30.510000000000002</ele>
        <time>2026-04-19T07:11:18Z</time>
      </trkpt>
      <trkpt lat="51.251254566013813" lon="5.845850659534335">
        <ele>30.550000000000001</ele>
        <time>2026-04-19T07:11:31Z</time>
      </trkpt>
      <trkpt lat="51.251273425295949" lon="5.846044616773725">
        <ele>30.550000000000001</ele>
        <time>2026-04-19T07:11:32Z</time>
      </trkpt>
      <trkpt lat="51.25119530595839" lon="5.846591200679541">
        <ele>30.530000000000001</ele>
        <time>2026-04-19T07:12:10Z</time>
      </trkpt>
      <trkpt lat="51.251184493303299" lon="5.846701338887215">
        <ele>30.469999999999999</ele>
        <time>2026-04-19T07:12:14Z</time>
      </trkpt>
      <trkpt lat="51.251413151621819" lon="5.84668792784214">
        <ele>30.68</ele>
        <time>2026-04-19T07:12:29Z</time>
      </trkpt>
      <trkpt lat="51.251650024205446" lon="5.846682228147984">
        <ele>30.530000000000001</ele>
        <time>2026-04-19T07:12:45Z</time>
      </trkpt>
      <trkpt lat="51.252025617286563" lon="5.846834862604737">
        <ele>30.399999999999999</ele>
        <time>2026-04-19T07:13:14Z</time>
      </trkpt>
      <trkpt lat="51.252230471000075" lon="5.846918597817421">
        <ele>30.379999999999999</ele>
        <time>2026-04-19T07:13:30Z</time>
      </trkpt>
      <trkpt lat="51.252680495381355" lon="5.84712571464479">
        <ele>30.300000000000001</ele>
        <time>2026-04-19T07:14:13Z</time>
      </trkpt>
      <trkpt lat="51.252988781780005" lon="5.84737541154027">
        <ele>30.399999999999999</ele>
        <time>2026-04-19T07:14:32Z</time>
      </trkpt>
      <trkpt lat="51.253371583297849" lon="5.847683949396014">
        <ele>30.32</ele>
        <time>2026-04-19T07:15:04Z</time>
      </trkpt>
      <trkpt lat="51.25365992076695" lon="5.84778537042439">
        <ele>30.449999999999999</ele>
        <time>2026-04-19T07:15:34Z</time>
      </trkpt>
      <trkpt lat="51.254048002883792" lon="5.847855862230063">
        <ele>30.399999999999999</ele>
        <time>2026-04-19T07:16:05Z</time>
      </trkpt>
      <trkpt lat="51.254217820242047" lon="5.847870614379644">
        <ele>30.25</ele>
        <time>2026-04-19T07:16:19Z</time>
      </trkpt>
      <trkpt lat="51.254368778318167" lon="5.84780003875494">
        <ele>30.219999999999999</ele>
        <time>2026-04-19T07:16:29Z</time>
      </trkpt>
      <trkpt lat="51.25442803837359" lon="5.84777363575995">
        <ele>30.18</ele>
        <time>2026-04-19T07:16:34Z</time>
      </trkpt>
      <trkpt lat="51.254580086097121" lon="5.84765394218266">
        <ele>30.079999999999998</ele>
        <time>2026-04-19T07:16:51Z</time>
      </trkpt>
      <trkpt lat="51.254880158230662" lon="5.84740181453526">
        <ele>30.18</ele>
        <time>2026-04-19T07:17:18Z</time>
      </trkpt>
      <trkpt lat="51.255029188469052" lon="5.847299136221409">
        <ele>30.199999999999999</ele>
        <time>2026-04-19T07:17:29Z</time>
      </trkpt>
      <trkpt lat="51.255095824599266" lon="5.847207102924585">
        <ele>30.170000000000002</ele>
        <time>2026-04-19T07:17:39Z</time>
      </trkpt>
      <trkpt lat="51.255076210945845" lon="5.847142310813069">
        <ele>30.120000000000001</ele>
        <time>2026-04-19T07:17:43Z</time>
      </trkpt>
      <trkpt lat="51.25503933057189" lon="5.847051367163658">
        <ele>29.93</ele>
        <time>2026-04-19T07:17:49Z</time>
      </trkpt>
      <trkpt lat="51.255007730796933" lon="5.846986826509237">
        <ele>29.77</ele>
        <time>2026-04-19T07:17:54Z</time>
      </trkpt>
      <trkpt lat="51.254739593714476" lon="5.846648700535297">
        <ele>29.59</ele>
        <time>2026-04-19T07:18:22Z</time>
      </trkpt>
      <trkpt lat="51.254610680043697" lon="5.846484918147326">
        <ele>29.57</ele>
        <time>2026-04-19T07:18:37Z</time>
      </trkpt>
      <trkpt lat="51.254260148853064" lon="5.846023410558701">
        <ele>29.600000000000001</ele>
        <time>2026-04-19T07:19:12Z</time>
      </trkpt>
      <trkpt lat="51.253826888278127" lon="5.845458386465907">
        <ele>29.510000000000002</ele>
        <time>2026-04-19T07:19:57Z</time>
      </trkpt>
      <trkpt lat="51.253354651853442" lon="5.84478959441185">
        <ele>28.809999999999999</ele>
        <time>2026-04-19T07:20:49Z</time>
      </trkpt>
      <trkpt lat="51.253101266920567" lon="5.844272766262293">
        <ele>28.620000000000001</ele>
        <time>2026-04-19T07:21:23Z</time>
      </trkpt>
      <trkpt lat="51.253012334927917" lon="5.844030361622572">
        <ele>29.43</ele>
        <time>2026-04-19T07:21:40Z</time>
      </trkpt>
      <trkpt lat="51.25293773598969" lon="5.843661557883024">
        <ele>29.620000000000001</ele>
        <time>2026-04-19T07:21:55Z</time>
      </trkpt>
      <trkpt lat="51.252785017713904" lon="5.843160571530461">
        <ele>29.960000000000001</ele>
        <time>2026-04-19T07:22:31Z</time>
      </trkpt>
      <trkpt lat="51.252666413784027" lon="5.842160023748875">
        <ele>30</ele>
        <time>2026-04-19T07:23:26Z</time>
      </trkpt>
      <trkpt lat="51.252599023282528" lon="5.841516545042396">
        <ele>29.789999999999999</ele>
        <time>2026-04-19T07:24:03Z</time>
      </trkpt>
      <trkpt lat="51.252572117373347" lon="5.841291742399335">
        <ele>29.739999999999998</ele>
        <time>2026-04-19T07:24:06Z</time>
      </trkpt>
      <trkpt lat="51.252561891451478" lon="5.841085715219379">
        <ele>30.210000000000001</ele>
        <time>2026-04-19T07:24:17Z</time>
      </trkpt>
      <trkpt lat="51.252547642216086" lon="5.841015810146928">
        <ele>30.239999999999998</ele>
        <time>2026-04-19T07:24:21Z</time>
      </trkpt>
      <trkpt lat="51.252535236999393" lon="5.840892177075148">
        <ele>30.149999999999999</ele>
        <time>2026-04-19T07:24:27Z</time>
      </trkpt>
      <trkpt lat="51.252449238672853" lon="5.840236879885197">
        <ele>29.949999999999999</ele>
        <time>2026-04-19T07:25:03Z</time>
      </trkpt>
      <trkpt lat="51.252402300015092" lon="5.83988425321877">
        <ele>30</ele>
        <time>2026-04-19T07:25:25Z</time>
      </trkpt>
      <trkpt lat="51.252292161807418" lon="5.839544534683228">
        <ele>29.960000000000001</ele>
        <time>2026-04-19T07:25:41Z</time>
      </trkpt>
      <trkpt lat="51.252092169597745" lon="5.839323671534658">
        <ele>30.190000000000001</ele>
        <time>2026-04-19T07:26:01Z</time>
      </trkpt>
      <trkpt lat="51.25124953687191" lon="5.838434435427189">
        <ele>31.37890625</ele>
      </trkpt>
      <trkpt lat="51.251174854114652" lon="5.838372828438878">
        <ele>29.370000000000001</ele>
        <time>2026-04-19T07:27:41Z</time>
      </trkpt>
      <trkpt lat="51.251091370359063" lon="5.838267048820853">
        <ele>31.390000000000001</ele>
        <time>2026-04-19T07:27:49Z</time>
      </trkpt>
      <trkpt lat="51.25083857215941" lon="5.83787209354341">
        <ele>30.699999999999999</ele>
        <time>2026-04-19T07:28:11Z</time>
      </trkpt>
      <trkpt lat="51.250703288242221" lon="5.837441263720393">
        <ele>30.399999999999999</ele>
        <time>2026-04-19T07:28:35Z</time>
      </trkpt>
      <trkpt lat="51.250622402876616" lon="5.837129792198539">
        <ele>30.489999999999998</ele>
        <time>2026-04-19T07:28:55Z</time>
      </trkpt>
      <trkpt lat="51.250467840582132" lon="5.836617155000567">
        <ele>30.059999999999999</ele>
        <time>2026-04-19T07:29:28Z</time>
      </trkpt>
      <trkpt lat="51.250349236652255" lon="5.836154306307435">
        <ele>30.370000000000001</ele>
        <time>2026-04-19T07:29:55Z</time>
      </trkpt>
      <trkpt lat="51.250225268304348" lon="5.835691541433334">
        <ele>30.809999999999999</ele>
        <time>2026-04-19T07:30:11Z</time>
      </trkpt>
      <trkpt lat="51.250346470624208" lon="5.835469253361225">
        <ele>30.789999999999999</ele>
        <time>2026-04-19T07:30:30Z</time>
      </trkpt>
      <trkpt lat="51.250573452562094" lon="5.835164990276098">
        <ele>30.77</ele>
        <time>2026-04-19T07:30:54Z</time>
      </trkpt>
      <trkpt lat="51.250987518578768" lon="5.834622597321868">
        <ele>30.260000000000002</ele>
        <time>2026-04-19T07:31:39Z</time>
      </trkpt>
      <trkpt lat="51.251256996765733" lon="5.834272233769298">
        <ele>30.109999999999999</ele>
        <time>2026-04-19T07:32:08Z</time>
      </trkpt>
      <trkpt lat="51.25157106667757" lon="5.83406712859869">
        <ele>30.219999999999999</ele>
        <time>2026-04-19T07:32:35Z</time>
      </trkpt>
      <trkpt lat="51.251820931211114" lon="5.834279609844089">
        <ele>30.190000000000001</ele>
        <time>2026-04-19T07:32:59Z</time>
      </trkpt>
      <trkpt lat="51.251971805468202" lon="5.834557302296162">
        <ele>30.280000000000001</ele>
        <time>2026-04-19T07:33:16Z</time>
      </trkpt>
      <trkpt lat="51.252181269228458" lon="5.834877574816346">
        <ele>30.469999999999999</ele>
        <time>2026-04-19T07:33:33Z</time>
      </trkpt>
      <trkpt lat="51.252439934760332" lon="5.835115537047386">
        <ele>30.82</ele>
        <time>2026-04-19T07:34:02Z</time>
      </trkpt>
      <trkpt lat="51.252566333860159" lon="5.834836838766933">
        <ele>30.960000000000001</ele>
        <time>2026-04-19T07:34:18Z</time>
      </trkpt>
      <trkpt lat="51.252852492034435" lon="5.834511704742909">
        <ele>30.969999999999999</ele>
        <time>2026-04-19T07:34:46Z</time>
      </trkpt>
      <trkpt lat="51.253162454813719" lon="5.834145834669471">
        <ele>31.16</ele>
        <time>2026-04-19T07:35:18Z</time>
      </trkpt>
      <trkpt lat="51.2534967251122" lon="5.833772839978337">
        <ele>31.350000000000001</ele>
        <time>2026-04-19T07:35:49Z</time>
      </trkpt>
      <trkpt lat="51.253650281578302" lon="5.83362297154963">
        <ele>31.539999999999999</ele>
        <time>2026-04-19T07:36:06Z</time>
      </trkpt>
      <trkpt lat="51.253900900483131" lon="5.833296831697226">
        <ele>31.800000000000001</ele>
        <time>2026-04-19T07:36:27Z</time>
      </trkpt>
      <trkpt lat="51.254039453342557" lon="5.833028526976705">
        <ele>31.84</ele>
        <time>2026-04-19T07:36:47Z</time>
      </trkpt>
      <trkpt lat="51.254113465547562" lon="5.832974882796407">
        <ele>31.739999999999998</ele>
        <time>2026-04-19T07:36:54Z</time>
      </trkpt>
      <trkpt lat="51.254174318164587" lon="5.832958538085222">
        <ele>31.59</ele>
        <time>2026-04-19T07:36:59Z</time>
      </trkpt>
      <trkpt lat="51.25419451855123" lon="5.83294864743948">
        <ele>31.559999999999999</ele>
        <time>2026-04-19T07:37:01Z</time>
      </trkpt>
      <trkpt lat="51.254238858819008" lon="5.832906067371368">
        <ele>31.539999999999999</ele>
        <time>2026-04-19T07:37:03Z</time>
      </trkpt>
      <trkpt lat="51.254288731142879" lon="5.832599960267544">
        <ele>31.510000000000002</ele>
        <time>2026-04-19T07:37:20Z</time>
      </trkpt>
      <trkpt lat="51.254469947889447" lon="5.831710640341044">
        <ele>31.48</ele>
        <time>2026-04-19T07:38:06Z</time>
      </trkpt>
      <trkpt lat="51.254573045298457" lon="5.831212168559432">
        <ele>31.690000000000001</ele>
        <time>2026-04-19T07:38:32Z</time>
      </trkpt>
      <trkpt lat="51.254634987562895" lon="5.830879071727395">
        <ele>31.780000000000001</ele>
        <time>2026-04-19T07:38:48Z</time>
      </trkpt>
      <trkpt lat="51.254716124385595" lon="5.830432483926415">
        <ele>32.149999999999999</ele>
        <time>2026-04-19T07:39:11Z</time>
      </trkpt>
      <trkpt lat="51.25477789901197" lon="5.830092681571841">
        <ele>32.060000000000002</ele>
        <time>2026-04-19T07:39:27Z</time>
      </trkpt>
      <trkpt lat="51.254847133532166" lon="5.829768134281039">
        <ele>32.009999999999998</ele>
        <time>2026-04-19T07:39:44Z</time>
      </trkpt>
      <trkpt lat="51.254954924806952" lon="5.829190704971552">
        <ele>31.800000000000001</ele>
        <time>2026-04-19T07:40:13Z</time>
      </trkpt>
      <trkpt lat="51.255014268681407" lon="5.828835479915142">
        <ele>31.890000000000001</ele>
        <time>2026-04-19T07:40:30Z</time>
      </trkpt>
      <trkpt lat="51.255170507356524" lon="5.828370871022344">
        <ele>31.780000000000001</ele>
        <time>2026-04-19T07:40:54Z</time>
      </trkpt>
      <trkpt lat="51.255360441282392" lon="5.827908189967275">
        <ele>31.449999999999999</ele>
        <time>2026-04-19T07:41:21Z</time>
      </trkpt>
      <trkpt lat="51.255583064630628" lon="5.827394127845764">
        <ele>31.210000000000001</ele>
        <time>2026-04-19T07:41:51Z</time>
      </trkpt>
      <trkpt lat="51.255856901407242" lon="5.826804712414742">
        <ele>31.190000000000001</ele>
        <time>2026-04-19T07:42:27Z</time>
      </trkpt>
      <trkpt lat="51.25589101575315" lon="5.826732208952308">
        <ele>31.329999999999998</ele>
        <time>2026-04-19T07:42:31Z</time>
      </trkpt>
      <trkpt lat="51.255824631080031" lon="5.826584352180362">
        <ele>30.899999999999999</ele>
        <time>2026-04-19T07:42:48Z</time>
      </trkpt>
      <trkpt lat="51.255719438195229" lon="5.826271539554">
        <ele>30.850000000000001</ele>
        <time>2026-04-19T07:43:07Z</time>
      </trkpt>
      <trkpt lat="51.255565881729126" lon="5.82583081908524">
        <ele>30.82</ele>
        <time>2026-04-19T07:43:34Z</time>
      </trkpt>
      <trkpt lat="51.255441913381219" lon="5.825434103608131">
        <ele>30.84</ele>
        <time>2026-04-19T07:43:53Z</time>
      </trkpt>
      <trkpt lat="51.255695214495063" lon="5.82519605755806">
        <ele>31.48</ele>
        <time>2026-04-19T07:44:08Z</time>
      </trkpt>
      <trkpt lat="51.255550291389227" lon="5.825172336772084">
        <ele>31.780000000000001</ele>
        <time>2026-04-19T07:44:24Z</time>
      </trkpt>
      <trkpt lat="51.2554014287889" lon="5.825121123343706">
        <ele>31.329999999999998</ele>
        <time>2026-04-19T07:44:36Z</time>
      </trkpt>
      <trkpt lat="51.255088783800602" lon="5.825058007612824">
        <ele>31.210000000000001</ele>
        <time>2026-04-19T07:45:05Z</time>
      </trkpt>
      <trkpt lat="51.254937909543514" lon="5.825018361210823">
        <ele>31.210000000000001</ele>
        <time>2026-04-19T07:45:07Z</time>
      </trkpt>
      <trkpt lat="51.254859706386924" lon="5.824786936864257">
        <ele>31.170000000000002</ele>
        <time>2026-04-19T07:45:23Z</time>
      </trkpt>
      <trkpt lat="51.254649488255382" lon="5.824231551960111">
        <ele>31.260000000000002</ele>
        <time>2026-04-19T07:45:56Z</time>
      </trkpt>
      <trkpt lat="51.254541696980596" lon="5.823914213106036">
        <ele>31.940000000000001</ele>
        <time>2026-04-19T07:46:17Z</time>
      </trkpt>
      <trkpt lat="51.254706066101789" lon="5.823742300271988">
        <ele>32.740000000000002</ele>
        <time>2026-04-19T07:46:37Z</time>
      </trkpt>
      <trkpt lat="51.254811175167561" lon="5.82378638908267">
        <ele>31.91</ele>
        <time>2026-04-19T07:46:58Z</time>
      </trkpt>
      <trkpt lat="51.255010580644011" lon="5.823909770697355">
        <ele>32.619999999999997</ele>
        <time>2026-04-19T07:47:20Z</time>
      </trkpt>
      <trkpt lat="51.255325069651008" lon="5.823877668008208">
        <ele>32.060000000000002</ele>
        <time>2026-04-19T07:48:02Z</time>
      </trkpt>
      <trkpt lat="51.255645761266351" lon="5.823423704132438">
        <ele>31.760000000000002</ele>
        <time>2026-04-19T07:48:23Z</time>
      </trkpt>
      <trkpt lat="51.255729328840971" lon="5.823410460725427">
        <ele>31.629999999999999</ele>
        <time>2026-04-19T07:48:33Z</time>
      </trkpt>
      <trkpt lat="51.255934098735452" lon="5.82348539493978">
        <ele>31.579999999999998</ele>
        <time>2026-04-19T07:48:50Z</time>
      </trkpt>
      <trkpt lat="51.256297202780843" lon="5.823641214519739">
        <ele>31.870000000000001</ele>
        <time>2026-04-19T07:49:20Z</time>
      </trkpt>
      <trkpt lat="51.256407676264644" lon="5.823751352727413">
        <ele>31.920000000000002</ele>
        <time>2026-04-19T07:49:30Z</time>
      </trkpt>
      <trkpt lat="51.256601717323065" lon="5.823861574754119">
        <ele>31.920000000000002</ele>
        <time>2026-04-19T07:49:32Z</time>
      </trkpt>
      <trkpt lat="51.256714873015881" lon="5.82389242015779">
        <ele>32.140000000000001</ele>
        <time>2026-04-19T07:50:03Z</time>
      </trkpt>
      <trkpt lat="51.256750160828233" lon="5.823836680501699">
        <ele>31.93</ele>
        <time>2026-04-19T07:50:13Z</time>
      </trkpt>
      <trkpt lat="51.256770864129066" lon="5.823714891448617">
        <ele>31.899999999999999</ele>
        <time>2026-04-19T07:50:18Z</time>
      </trkpt>
      <trkpt lat="51.256847139447927" lon="5.823541386052966">
        <ele>31.780000000000001</ele>
        <time>2026-04-19T07:50:29Z</time>
      </trkpt>
      <trkpt lat="51.257522804662585" lon="5.821569710969925">
        <ele>31.629999999999999</ele>
        <time>2026-04-19T07:52:19Z</time>
      </trkpt>
      <trkpt lat="51.257466142997146" lon="5.821371395140886">
        <ele>31.600000000000001</ele>
        <time>2026-04-19T07:52:35Z</time>
      </trkpt>
      <trkpt lat="51.256952248513699" lon="5.819774474948645">
        <ele>31.780000000000001</ele>
        <time>2026-04-19T07:54:16Z</time>
      </trkpt>
      <trkpt lat="51.256887624040246" lon="5.819576159119606">
        <ele>31.699999999999999</ele>
        <time>2026-04-19T07:54:20Z</time>
      </trkpt>
      <trkpt lat="51.256753765046597" lon="5.819547744467855">
        <ele>31.609999999999999</ele>
        <time>2026-04-19T07:54:30Z</time>
      </trkpt>
      <trkpt lat="51.255026757717133" lon="5.81890057772398">
        <ele>31.129999999999999</ele>
        <time>2026-04-19T07:56:49Z</time>
      </trkpt>
      <trkpt lat="51.254959367215633" lon="5.818622885271907">
        <ele>31.050000000000001</ele>
        <time>2026-04-19T07:57:01Z</time>
      </trkpt>
      <trkpt lat="51.254899688065052" lon="5.81872028298676">
        <ele>31.059999999999999</ele>
        <time>2026-04-19T07:57:03Z</time>
      </trkpt>
      <trkpt lat="51.254622498527169" lon="5.819010799750686">
        <ele>30.859999999999999</ele>
        <time>2026-04-19T07:57:34Z</time>
      </trkpt>
      <trkpt lat="51.254206337034702" lon="5.819332497194409">
        <ele>30.809999999999999</ele>
        <time>2026-04-19T07:58:09Z</time>
      </trkpt>
      <trkpt lat="51.253580963239074" lon="5.819715969264507">
        <ele>30.829999999999998</ele>
        <time>2026-04-19T07:58:57Z</time>
      </trkpt>
      <trkpt lat="51.253413828089833" lon="5.819826191291213">
        <ele>30.969999999999999</ele>
        <time>2026-04-19T07:59:11Z</time>
      </trkpt>
      <trkpt lat="51.253425562754273" lon="5.820037582889199">
        <ele>30.98</ele>
        <time>2026-04-19T07:59:14Z</time>
      </trkpt>
      <trkpt lat="51.253404021263123" lon="5.820284429937601">
        <ele>31.370000000000001</ele>
        <time>2026-04-19T07:59:32Z</time>
      </trkpt>
      <trkpt lat="51.253414833918214" lon="5.820557679980993">
        <ele>31.350000000000001</ele>
        <time>2026-04-19T07:59:50Z</time>
      </trkpt>
      <trkpt lat="51.253554979339242" lon="5.820976356044412">
        <ele>31.07</ele>
        <time>2026-04-19T08:00:09Z</time>
      </trkpt>
      <trkpt lat="51.253722030669451" lon="5.821500895544887">
        <ele>30.370000000000001</ele>
        <time>2026-04-19T08:00:46Z</time>
      </trkpt>
      <trkpt lat="51.253894530236721" lon="5.82199894823134">
        <ele>30.039999999999999</ele>
        <time>2026-04-19T08:01:17Z</time>
      </trkpt>
      <trkpt lat="51.254040123894811" lon="5.82247051410377">
        <ele>30.41</ele>
        <time>2026-04-19T08:01:35Z</time>
      </trkpt>
      <trkpt lat="51.253962172195315" lon="5.822535809129477">
        <ele>30.609999999999999</ele>
        <time>2026-04-19T08:01:52Z</time>
      </trkpt>
      <trkpt lat="51.253781374543905" lon="5.822675451636314">
        <ele>30.690000000000001</ele>
        <time>2026-04-19T08:02:09Z</time>
      </trkpt>
      <trkpt lat="51.253173938021064" lon="5.823117513209581">
        <ele>29.98</ele>
        <time>2026-04-19T08:03:02Z</time>
      </trkpt>
      <trkpt lat="51.252840673550963" lon="5.823357822373509">
        <ele>30.350000000000001</ele>
        <time>2026-04-19T08:03:34Z</time>
      </trkpt>
      <trkpt lat="51.252770433202386" lon="5.823260759934783">
        <ele>30.359999999999999</ele>
        <time>2026-04-19T08:03:37Z</time>
      </trkpt>
      <trkpt lat="51.252754256129265" lon="5.823225472122431">
        <ele>30.379999999999999</ele>
        <time>2026-04-19T08:03:38Z</time>
      </trkpt>
      <trkpt lat="51.252719219774008" lon="5.823154980316758">
        <ele>30.390000000000001</ele>
        <time>2026-04-19T08:03:43Z</time>
      </trkpt>
      <trkpt lat="51.252549486234784" lon="5.822775866836309">
        <ele>30.379999999999999</ele>
        <time>2026-04-19T08:04:02Z</time>
      </trkpt>
      <trkpt lat="51.252482095733285" lon="5.822916934266686">
        <ele>30.43</ele>
        <time>2026-04-19T08:04:05Z</time>
      </trkpt>
      <trkpt lat="51.252455106005073" lon="5.823013912886381">
        <ele>30.5</ele>
        <time>2026-04-19T08:04:18Z</time>
      </trkpt>
      <trkpt lat="51.2523137871176" lon="5.823416328057647">
        <ele>31.18</ele>
        <time>2026-04-19T08:04:40Z</time>
      </trkpt>
      <trkpt lat="51.252208678051829" lon="5.82347366027534">
        <ele>31.350000000000001</ele>
        <time>2026-04-19T08:05:01Z</time>
      </trkpt>
      <trkpt lat="51.251998459920287" lon="5.823557395488024">
        <ele>37.3984375</ele>
      </trkpt>
      <trkpt lat="51.250912416726351" lon="5.823601484298706">
        <ele>30.760000000000002</ele>
        <time>2026-04-19T08:07:39Z</time>
      </trkpt>
      <trkpt lat="51.251004869118333" lon="5.824058214202523">
        <ele>30.66</ele>
        <time>2026-04-19T08:07:57Z</time>
      </trkpt>
      <trkpt lat="51.251118024811149" lon="5.824869247153401">
        <ele>30.829999999999998</ele>
        <time>2026-04-19T08:08:32Z</time>
      </trkpt>
      <trkpt lat="51.251064129173756" lon="5.82506756298244">
        <ele>30.68</ele>
        <time>2026-04-19T08:08:52Z</time>
      </trkpt>
      <trkpt lat="51.250848295167089" lon="5.825096983462572">
        <ele>30.370000000000001</ele>
        <time>2026-04-19T08:09:15Z</time>
      </trkpt>
      <trkpt lat="51.25044135376811" lon="5.825145430862904">
        <ele>30.079999999999998</ele>
        <time>2026-04-19T08:09:51Z</time>
      </trkpt>
      <trkpt lat="51.25026592053473" lon="5.825276104733348">
        <ele>30.629999999999999</ele>
        <time>2026-04-19T08:10:11Z</time>
      </trkpt>
      <trkpt lat="51.250050589442253" lon="5.825409963726997">
        <ele>30.629999999999999</ele>
        <time>2026-04-19T08:10:24Z</time>
      </trkpt>
      <trkpt lat="51.249732496216893" lon="5.825786059722304">
        <ele>29.989999999999998</ele>
        <time>2026-04-19T08:10:59Z</time>
      </trkpt>
      <trkpt lat="51.24949537217617" lon="5.826054867357016">
        <ele>29.510000000000002</ele>
        <time>2026-04-19T08:11:26Z</time>
      </trkpt>
      <trkpt lat="51.249275179579854" lon="5.825727302581072">
        <ele>29.93</ele>
        <time>2026-04-19T08:11:45Z</time>
      </trkpt>
      <trkpt lat="51.249156659469008" lon="5.825520185753703">
        <ele>30.02</ele>
        <time>2026-04-19T08:12:03Z</time>
      </trkpt>
      <trkpt lat="51.249024560675025" lon="5.825273338705301">
        <ele>30.010000000000002</ele>
        <time>2026-04-19T08:12:22Z</time>
      </trkpt>
      <trkpt lat="51.248941076919436" lon="5.825154315680265">
        <ele>30.030000000000001</ele>
        <time>2026-04-19T08:12:38Z</time>
      </trkpt>
      <trkpt lat="51.248897910118103" lon="5.825154315680265">
        <ele>29.940000000000001</ele>
        <time>2026-04-19T08:12:43Z</time>
      </trkpt>
      <trkpt lat="51.248780898749828" lon="5.825420441105962">
        <ele>29.420000000000002</ele>
        <time>2026-04-19T08:13:06Z</time>
      </trkpt>
      <trkpt lat="51.248573446646333" lon="5.825768625363708">
        <ele>29.629999999999999</ele>
        <time>2026-04-19T08:13:23Z</time>
      </trkpt>
      <trkpt lat="51.248177234083414" lon="5.826548812910914">
        <ele>29.34</ele>
        <time>2026-04-19T08:14:13Z</time>
      </trkpt>
      <trkpt lat="51.248108083382249" lon="5.826839664950967">
        <ele>29.09</ele>
        <time>2026-04-19T08:15:09Z</time>
      </trkpt>
      <trkpt lat="51.2474475055933" lon="5.828294008970261">
        <ele>28.920000000000002</ele>
        <time>2026-04-19T08:15:51Z</time>
      </trkpt>
      <trkpt lat="51.247142236679792" lon="5.828916616737843">
        <ele>28.82</ele>
        <time>2026-04-19T08:16:28Z</time>
      </trkpt>
      <trkpt lat="51.246897568926215" lon="5.829545427113771">
        <ele>28.960000000000001</ele>
        <time>2026-04-19T08:17:04Z</time>
      </trkpt>
      <trkpt lat="51.246774438768625" lon="5.830031409859657">
        <ele>29.100000000000001</ele>
        <time>2026-04-19T08:17:31Z</time>
      </trkpt>
      <trkpt lat="51.246599927544594" lon="5.830763066187501">
        <ele>29.550000000000001</ele>
        <time>2026-04-19T08:18:09Z</time>
      </trkpt>
      <trkpt lat="51.246585762128234" lon="5.830878484994173">
        <ele>29.550000000000001</ele>
        <time>2026-04-19T08:18:14Z</time>
      </trkpt>
      <trkpt lat="51.246501356363297" lon="5.831252653151751">
        <ele>29.59</ele>
        <time>2026-04-19T08:18:34Z</time>
      </trkpt>
      <trkpt lat="51.246471768245101" lon="5.831838883459568">
        <ele>29.280000000000001</ele>
        <time>2026-04-19T08:19:01Z</time>
      </trkpt>
      <trkpt lat="51.246439414098859" lon="5.832381024956703">
        <ele>29.469999999999999</ele>
        <time>2026-04-19T08:19:30Z</time>
      </trkpt>
      <trkpt lat="51.246374705806375" lon="5.833095079287887">
        <ele>29.510000000000002</ele>
        <time>2026-04-19T08:20:00Z</time>
      </trkpt>
      <trkpt lat="51.246326174587011" lon="5.833130367100239">
        <ele>29.5</ele>
        <time>2026-04-19T08:20:08Z</time>
      </trkpt>
      <trkpt lat="51.246272278949618" lon="5.833130367100239">
        <ele>29.48</ele>
        <time>2026-04-19T08:20:11Z</time>
      </trkpt>
      <trkpt lat="51.246110592037439" lon="5.833183256909251">
        <ele>29.57</ele>
        <time>2026-04-19T08:20:25Z</time>
      </trkpt>
      <trkpt lat="51.245968602597713" lon="5.833212677389383">
        <ele>29.57</ele>
        <time>2026-04-19T08:20:36Z</time>
      </trkpt>
      <trkpt lat="51.245798785239458" lon="5.833234637975693">
        <ele>29.34</ele>
        <time>2026-04-19T08:20:52Z</time>
      </trkpt>
      <trkpt lat="51.245555458590388" lon="5.833296664059162">
        <ele>29.239999999999998</ele>
        <time>2026-04-19T08:21:11Z</time>
      </trkpt>
      <trkpt lat="51.245058327913284" lon="5.833340417593718">
        <ele>28.969999999999999</ele>
        <time>2026-04-19T08:21:46Z</time>
      </trkpt>
      <trkpt lat="51.244829250499606" lon="5.8333845064044">
        <ele>28.77</ele>
        <time>2026-04-19T08:22:14Z</time>
      </trkpt>
      <trkpt lat="51.244673011824489" lon="5.833499087020755">
        <ele>28.84</ele>
        <time>2026-04-19T08:22:18Z</time>
      </trkpt>
      <trkpt lat="51.244522053748369" lon="5.833719447255135">
        <ele>29.34</ele>
        <time>2026-04-19T08:22:36Z</time>
      </trkpt>
      <trkpt lat="51.244262382388115" lon="5.834138039499521">
        <ele>28.559999999999999</ele>
        <time>2026-04-19T08:23:05Z</time>
      </trkpt>
      <trkpt lat="51.244022492319345" lon="5.834481865167618">
        <ele>28.48</ele>
        <time>2026-04-19T08:23:34Z</time>
      </trkpt>
      <trkpt lat="51.243938924744725" lon="5.834649335592985">
        <ele>28.57</ele>
        <time>2026-04-19T08:23:51Z</time>
      </trkpt>
      <trkpt lat="51.243790732696652" lon="5.835195919498801">
        <ele>28.329999999999998</ele>
        <time>2026-04-19T08:24:09Z</time>
      </trkpt>
      <trkpt lat="51.243761898949742" lon="5.835767230018973">
        <ele>28.129999999999999</ele>
        <time>2026-04-19T08:24:29Z</time>
      </trkpt>
      <trkpt lat="51.243737675249577" lon="5.836243238300085">
        <ele>27.879999999999999</ele>
        <time>2026-04-19T08:24:56Z</time>
      </trkpt>
      <trkpt lat="51.243732310831547" lon="5.836366703733802">
        <ele>27.870000000000001</ele>
        <time>2026-04-19T08:25:06Z</time>
      </trkpt>
      <trkpt lat="51.243716133758426" lon="5.836468040943146">
        <ele>27.870000000000001</ele>
        <time>2026-04-19T08:25:09Z</time>
      </trkpt>
      <trkpt lat="51.243675732985139" lon="5.836713379248977">
        <ele>27.690000000000001</ele>
        <time>2026-04-19T08:25:24Z</time>
      </trkpt>
      <trkpt lat="51.243587555363774" lon="5.837001297622919">
        <ele>27.969999999999999</ele>
        <time>2026-04-19T08:25:40Z</time>
      </trkpt>
      <trkpt lat="51.243549669161439" lon="5.837336154654622">
        <ele>27.449999999999999</ele>
        <time>2026-04-19T08:26:00Z</time>
      </trkpt>
      <trkpt lat="51.243544304743409" lon="5.837499182671309">
        <ele>27.41</ele>
        <time>2026-04-19T08:26:01Z</time>
      </trkpt>
      <trkpt lat="51.243533492088318" lon="5.837820963934064">
        <ele>27.579999999999998</ele>
        <time>2026-04-19T08:26:21Z</time>
      </trkpt>
      <trkpt lat="51.243458054959774" lon="5.838094213977456">
        <ele>27.309999999999999</ele>
        <time>2026-04-19T08:26:37Z</time>
      </trkpt>
      <trkpt lat="51.243339451029897" lon="5.838433681055903">
        <ele>27.370000000000001</ele>
        <time>2026-04-19T08:26:54Z</time>
      </trkpt>
      <trkpt lat="51.243383456021547" lon="5.83848875015974">
        <ele>27.359999999999999</ele>
        <time>2026-04-19T08:27:00Z</time>
      </trkpt>
      <trkpt lat="51.244295490905643" lon="5.839270194992423">
        <ele>26.43</ele>
        <time>2026-04-19T08:28:40Z</time>
      </trkpt>
      <trkpt lat="51.244534542784095" lon="5.839650565758348">
        <ele>26.16</ele>
        <time>2026-04-19T08:29:13Z</time>
      </trkpt>
      <trkpt lat="51.244618110358715" lon="5.840056082233787">
        <ele>26.27</ele>
        <time>2026-04-19T08:29:30Z</time>
      </trkpt>
      <trkpt lat="51.244636969640851" lon="5.840399907901883">
        <ele>25.809999999999999</ele>
        <time>2026-04-19T08:29:48Z</time>
      </trkpt>
      <trkpt lat="51.24462079256773" lon="5.840602666139603">
        <ele>25.68</ele>
        <time>2026-04-19T08:29:58Z</time>
      </trkpt>
      <trkpt lat="51.244591120630503" lon="5.840924447402358">
        <ele>25.75</ele>
        <time>2026-04-19T08:30:15Z</time>
      </trkpt>
      <trkpt lat="51.244566980749369" lon="5.841437336057425">
        <ele>25.879999999999999</ele>
        <time>2026-04-19T08:30:41Z</time>
      </trkpt>
      <trkpt lat="51.244542673230171" lon="5.841719387099147">
        <ele>25.77</ele>
        <time>2026-04-19T08:30:55Z</time>
      </trkpt>
      <trkpt lat="51.244496908038855" lon="5.84220863878727">
        <ele>25.23</ele>
        <time>2026-04-19T08:31:25Z</time>
      </trkpt>
      <trkpt lat="51.244550803676248" lon="5.842609712854028">
        <ele>25.43</ele>
        <time>2026-04-19T08:31:41Z</time>
      </trkpt>
      <trkpt lat="51.245233509689569" lon="5.84500408731401">
        <ele>26.600000000000001</ele>
        <time>2026-04-19T08:34:14Z</time>
      </trkpt>
      <trkpt lat="51.245298217982054" lon="5.845286222174764">
        <ele>26.48</ele>
        <time>2026-04-19T08:34:36Z</time>
      </trkpt>
      <trkpt lat="51.245384467765689" lon="5.845581516623497">
        <ele>26.219999999999999</ele>
        <time>2026-04-19T08:34:52Z</time>
      </trkpt>
      <trkpt lat="51.245422186329961" lon="5.845806319266558">
        <ele>26.16</ele>
        <time>2026-04-19T08:35:08Z</time>
      </trkpt>
      <trkpt lat="51.245413301512599" lon="5.84610303863883">
        <ele>26.510000000000002</ele>
        <time>2026-04-19T08:35:25Z</time>
      </trkpt>
      <trkpt lat="51.245631147176027" lon="5.84613673388958">
        <ele>26.850000000000001</ele>
        <time>2026-04-19T08:35:43Z</time>
      </trkpt>
      <trkpt lat="51.246062982827425" lon="5.846092728897929">
        <ele>27.18</ele>
        <time>2026-04-19T08:36:04Z</time>
      </trkpt>
      <trkpt lat="51.246170774102211" lon="5.845973705872893">
        <ele>27.600000000000001</ele>
        <time>2026-04-19T08:36:23Z</time>
      </trkpt>
      <trkpt lat="51.24619415961206" lon="5.845606410875917">
        <ele>27.66</ele>
        <time>2026-04-19T08:36:26Z</time>
      </trkpt>
      <trkpt lat="51.246361210942268" lon="5.844645593315363">
        <ele>29</ele>
        <time>2026-04-19T08:37:36Z</time>
      </trkpt>
      <trkpt lat="51.246421225368977" lon="5.844366475939751">
        <ele>29.050000000000001</ele>
        <time>2026-04-19T08:37:49Z</time>
      </trkpt>
      <trkpt lat="51.246450142934918" lon="5.844200430437923">
        <ele>29.079999999999998</ele>
        <time>2026-04-19T08:37:57Z</time>
      </trkpt>
      <trkpt lat="51.246514851227403" lon="5.843887450173497">
        <ele>29.379999999999999</ele>
        <time>2026-04-19T08:38:13Z</time>
      </trkpt>
      <trkpt lat="51.246568746864796" lon="5.843680249527097">
        <ele>29.18</ele>
        <time>2026-04-19T08:38:26Z</time>
      </trkpt>
      <trkpt lat="51.246574111282825" lon="5.843614200130105">
        <ele>29.18</ele>
        <time>2026-04-19T08:38:30Z</time>
      </trkpt>
      <trkpt lat="51.246641166508198" lon="5.843085385859013">
        <ele>29.280000000000001</ele>
        <time>2026-04-19T08:38:55Z</time>
      </trkpt>
      <trkpt lat="51.24684065580368" lon="5.843067280948162">
        <ele>29.32</ele>
        <time>2026-04-19T08:39:14Z</time>
      </trkpt>
      <trkpt lat="51.247065542265773" lon="5.842959824949503">
        <ele>29.300000000000001</ele>
        <time>2026-04-19T08:39:38Z</time>
      </trkpt>
      <trkpt lat="51.247109211981297" lon="5.842763604596257">
        <ele>29.52</ele>
        <time>2026-04-19T08:39:53Z</time>
      </trkpt>
      <trkpt lat="51.247182218357921" lon="5.842556152492762">
        <ele>29.489999999999998</ele>
        <time>2026-04-19T08:40:06Z</time>
      </trkpt>
      <trkpt lat="51.247341642156243" lon="5.841929269954562">
        <ele>30.02</ele>
        <time>2026-04-19T08:40:40Z</time>
      </trkpt>
      <trkpt lat="51.247454797849059" lon="5.841951314359903">
        <ele>30.140000000000001</ele>
        <time>2026-04-19T08:40:50Z</time>
      </trkpt>
      <trkpt lat="51.247667698189616" lon="5.841999845579267">
        <ele>30.210000000000001</ele>
        <time>2026-04-19T08:41:09Z</time>
      </trkpt>
      <trkpt lat="51.247877916321158" lon="5.842051897197962">
        <ele>30.109999999999999</ele>
        <time>2026-04-19T08:41:23Z</time>
      </trkpt>
      <trkpt lat="51.24789459630847" lon="5.841894149780273">
        <ele>29.91</ele>
        <time>2026-04-19T08:41:32Z</time>
      </trkpt>
      <trkpt lat="51.247893422842026" lon="5.841875458136201">
        <ele>29.920000000000002</ele>
        <time>2026-04-19T08:41:33Z</time>
      </trkpt>
      <trkpt lat="51.247777584940195" lon="5.841294759884477">
        <ele>29.859999999999999</ele>
        <time>2026-04-19T08:42:08Z</time>
      </trkpt>
      <trkpt lat="51.247652946040034" lon="5.84069344215095">
        <ele>30.09</ele>
        <time>2026-04-19T08:42:38Z</time>
      </trkpt>
      <trkpt lat="51.247608102858067" lon="5.840568970888853">
        <ele>30.09</ele>
        <time>2026-04-19T08:42:51Z</time>
      </trkpt>
      <trkpt lat="51.247608186677098" lon="5.840569557622075">
        <ele>29.870000000000001</ele>
        <time>2026-04-19T08:42:53Z</time>
      </trkpt>
    </trkseg>
  </trk>

</gpx>